createdAt,value
2022-08-26T00:01:28.918Z,49.75
2022-08-26T00:03:59.120Z,49.60
2022-08-26T00:06:27.930Z,49.78
2022-08-26T00:08:57.068Z,50.33
2022-08-26T00:11:26.542Z,50.33
2022-08-26T00:13:56.601Z,51.40
2022-08-26T00:16:25.788Z,52.50
2022-08-26T00:18:54.709Z,52.33
2022-08-26T00:21:23.219Z,51.97
2022-08-26T00:23:51.914Z,53.17
2022-08-26T00:26:20.568Z,53.83
2022-08-26T00:28:50.413Z,53.10
2022-08-26T00:31:19.463Z,54.20
2022-08-26T00:33:47.917Z,53.65
2022-08-26T00:36:20.332Z,51.30
2022-08-26T00:38:49.048Z,54.40
2022-08-26T00:41:19.362Z,55.38
2022-08-26T00:43:48.173Z,55.08
2022-08-26T00:46:16.673Z,52.38
2022-08-26T00:48:47.756Z,52.30
2022-08-26T00:51:23.577Z,53.20
2022-08-26T00:53:54.199Z,49.23
2022-08-26T00:56:29.295Z,50.90
2022-08-26T00:58:59.430Z,51.58
2022-08-26T01:01:33.696Z,50.88
2022-08-26T01:04:02.414Z,48.22
2022-08-26T01:06:31.783Z,48.58
2022-08-26T01:09:00.460Z,51.22
2022-08-26T01:11:28.946Z,47.28
2022-08-26T01:13:58.600Z,50.22
2022-08-26T01:16:27.429Z,48.58
2022-08-26T01:18:59.911Z,49.08
2022-08-26T01:21:31.928Z,44.30
2022-08-26T01:24:01.346Z,43.47
2022-08-26T01:26:41.712Z,42.85
2022-08-26T01:29:13.251Z,41.85
2022-08-26T01:31:46.237Z,39.13
2022-08-26T01:34:22.634Z,39.00
2022-08-26T01:36:52.087Z,38.42
2022-08-26T01:39:21.184Z,40.13
2022-08-26T01:41:53.566Z,39.47
2022-08-26T01:44:24.169Z,39.15
2022-08-26T01:47:02.704Z,37.92
2022-08-26T01:49:34.694Z,39.22
2022-08-26T01:52:04.640Z,38.13
2022-08-26T01:54:33.145Z,38.22
2022-08-26T01:57:02.029Z,37.63
2022-08-26T01:59:35.613Z,37.45
2022-08-26T02:02:04.411Z,37.25
2022-08-26T02:04:38.391Z,36.47
2022-08-26T02:07:12.048Z,36.28
2022-08-26T02:09:41.689Z,34.53
2022-08-26T02:12:11.186Z,36.63
2022-08-26T02:14:44.515Z,36.00
2022-08-26T02:17:13.583Z,36.85
2022-08-26T02:19:45.683Z,35.72
2022-08-26T02:22:16.550Z,34.80
2022-08-26T02:24:50.099Z,34.10
2022-08-26T02:27:21.692Z,34.13
2022-08-26T02:29:56.956Z,31.58
2022-08-26T02:32:25.863Z,32.72
2022-08-26T02:35:00.542Z,33.45
2022-08-26T02:37:30.629Z,33.88
2022-08-26T02:39:59.088Z,43.20
2022-08-26T02:42:32.761Z,34.30
2022-08-26T02:45:01.358Z,35.20
2022-08-26T02:47:32.473Z,34.03
2022-08-26T02:50:10.858Z,32.38
2022-08-26T02:52:45.043Z,32.97
2022-08-26T02:55:18.583Z,32.88
2022-08-26T02:57:52.955Z,32.10
2022-08-26T03:00:24.043Z,33.58
2022-08-26T03:02:52.517Z,33.80
2022-08-26T03:05:24.153Z,37.17
2022-08-26T03:07:53.254Z,39.70
2022-08-26T03:10:27.260Z,40.90
2022-08-26T03:12:55.645Z,33.10
2022-08-26T03:15:24.791Z,33.03
2022-08-26T03:17:56.054Z,33.90
2022-08-26T03:20:36.510Z,31.98
2022-08-26T03:23:04.951Z,32.85
2022-08-26T03:25:33.537Z,31.58
2022-08-26T03:28:02.224Z,32.05
2022-08-26T03:30:44.862Z,32.78
2022-08-26T03:33:14.393Z,30.92
2022-08-26T03:35:44.098Z,31.50
2022-08-26T03:38:12.601Z,29.58
2022-08-26T03:40:41.422Z,30.58
2022-08-26T03:43:10.886Z,28.88
2022-08-26T03:45:39.462Z,30.05
2022-08-26T03:48:09.160Z,30.08
2022-08-26T03:50:37.834Z,28.08
2022-08-26T03:53:07.535Z,29.17
2022-08-26T03:55:41.943Z,27.77
2022-08-26T03:58:12.002Z,27.30
2022-08-26T04:00:40.495Z,26.65
2022-08-26T04:03:16.852Z,27.05
2022-08-26T04:05:47.157Z,28.15
2022-08-26T04:08:16.562Z,27.45
2022-08-26T04:10:45.137Z,27.30
2022-08-26T04:13:14.271Z,27.05
2022-08-26T04:15:44.569Z,25.77
2022-08-26T04:18:13.402Z,26.23
2022-08-26T04:20:41.905Z,25.52
2022-08-26T04:23:10.403Z,25.45
2022-08-26T04:25:38.994Z,24.88
2022-08-26T04:28:09.276Z,24.90
2022-08-26T04:30:38.172Z,23.90
2022-08-26T04:33:12.772Z,22.60
2022-08-26T04:35:43.230Z,23.55
2022-08-26T04:38:12.558Z,23.30
2022-08-26T04:40:46.911Z,22.17
2022-08-26T04:43:19.681Z,21.42
2022-08-26T04:45:48.607Z,21.90
2022-08-26T04:48:17.520Z,22.75
2022-08-26T04:50:49.419Z,23.40
2022-08-26T04:53:18.156Z,20.55
2022-08-26T04:55:52.476Z,19.95
2022-08-26T04:58:25.203Z,20.17
2022-08-26T05:00:59.032Z,19.80
2022-08-26T05:03:30.530Z,19.35
2022-08-26T05:05:59.604Z,18.48
2022-08-26T05:08:32.605Z,18.30
2022-08-26T05:11:04.526Z,18.40
2022-08-26T05:13:35.281Z,16.73
2022-08-26T05:16:05.609Z,17.92
2022-08-26T05:18:34.628Z,17.58
2022-08-26T05:21:21.059Z,16.08
2022-08-26T05:23:51.717Z,16.63
2022-08-26T05:26:31.472Z,16.08
2022-08-26T05:29:00.051Z,16.15
2022-08-26T05:31:30.528Z,15.93
2022-08-26T05:33:59.971Z,16.35
2022-08-26T05:36:33.948Z,16.77
2022-08-26T05:39:04.661Z,16.80
2022-08-26T05:41:36.853Z,16.30
2022-08-26T05:44:13.113Z,16.35
2022-08-26T05:46:45.006Z,16.50
2022-08-26T05:49:14.460Z,15.70
2022-08-26T05:51:49.194Z,16.43
2022-08-26T05:54:22.382Z,17.48
2022-08-26T05:56:53.932Z,16.23
2022-08-26T05:59:24.156Z,17.65
2022-08-26T06:01:55.258Z,16.02
2022-08-26T06:04:24.838Z,16.13
2022-08-26T06:06:55.558Z,16.85
2022-08-26T06:09:24.173Z,16.30
2022-08-26T06:11:52.691Z,16.75
2022-08-26T06:14:23.376Z,17.92
2022-08-26T06:16:51.988Z,16.67
2022-08-26T06:19:22.153Z,15.63
2022-08-26T06:21:54.138Z,17.08
2022-08-26T06:24:41.908Z,15.80
2022-08-26T06:27:14.013Z,17.20
2022-08-26T06:29:43.785Z,16.67
2022-08-26T06:32:15.299Z,16.73
2022-08-26T06:34:43.712Z,15.95
2022-08-26T06:37:12.091Z,16.90
2022-08-26T06:39:41.338Z,15.98
2022-08-26T06:42:11.796Z,16.00
2022-08-26T06:44:44.755Z,16.38
2022-08-26T06:47:13.291Z,16.80
2022-08-26T06:49:41.627Z,15.35
2022-08-26T06:52:10.118Z,15.25
2022-08-26T06:54:38.946Z,16.48
2022-08-26T06:57:07.444Z,15.98
2022-08-26T06:59:35.924Z,15.30
2022-08-26T07:02:06.585Z,14.82
2022-08-26T07:04:36.653Z,15.18
2022-08-26T07:07:05.713Z,13.90
2022-08-26T07:09:39.327Z,14.25
2022-08-26T07:12:10.031Z,12.88
2022-08-26T07:14:39.640Z,14.75
2022-08-26T07:17:13.933Z,15.65
2022-08-26T07:19:43.262Z,14.15
2022-08-26T07:22:37.521Z,14.02
2022-08-26T07:25:11.837Z,13.90
2022-08-26T07:27:45.558Z,13.32
2022-08-26T07:30:20.469Z,14.02
2022-08-26T07:32:59.721Z,13.70
2022-08-26T07:35:28.268Z,14.13
2022-08-26T07:38:04.791Z,13.93
2022-08-26T07:40:41.393Z,14.18
2022-08-26T07:43:10.486Z,13.52
2022-08-26T07:45:45.770Z,13.30
2022-08-26T07:48:14.517Z,13.50
2022-08-26T07:50:50.083Z,13.23
2022-08-26T07:53:19.831Z,13.85
2022-08-26T07:55:49.018Z,13.27
2022-08-26T07:58:17.795Z,14.68
2022-08-26T08:00:46.779Z,14.75
2022-08-26T08:03:15.569Z,13.77
2022-08-26T08:05:46.302Z,14.43
2022-08-26T08:08:27.808Z,15.05
2022-08-26T08:10:57.862Z,15.65
2022-08-26T08:13:28.405Z,15.88
2022-08-26T08:15:57.312Z,16.17
2022-08-26T08:18:25.939Z,16.27
2022-08-26T08:20:59.243Z,15.68
2022-08-26T08:23:33.611Z,17.88
2022-08-26T08:26:03.093Z,15.05
2022-08-26T08:28:31.556Z,15.15
2022-08-26T08:31:10.380Z,23.08
2022-08-26T08:33:43.960Z,15.23
2022-08-26T08:36:18.559Z,15.13
2022-08-26T08:38:50.470Z,15.93
2022-08-26T08:41:25.010Z,17.27
2022-08-26T08:43:54.654Z,15.40
2022-08-26T08:46:23.483Z,14.95
2022-08-26T08:49:00.283Z,15.95
2022-08-26T08:51:43.576Z,14.98
2022-08-26T08:54:12.275Z,14.52
2022-08-26T08:56:43.253Z,14.63
2022-08-26T08:59:14.764Z,15.20
2022-08-26T09:01:43.656Z,16.63
2022-08-26T09:04:12.133Z,17.17
2022-08-26T09:06:47.568Z,16.80
2022-08-26T09:09:24.233Z,16.48
2022-08-26T09:14:20.821Z,15.73
2022-08-26T09:16:52.266Z,14.85
2022-08-26T09:19:31.451Z,15.55
2022-08-26T09:22:01.601Z,15.23
2022-08-26T09:24:39.560Z,16.13
2022-08-26T09:27:11.494Z,15.93
2022-08-26T09:29:45.849Z,16.10
2022-08-26T09:32:24.823Z,17.15
2022-08-26T09:34:54.238Z,16.65
2022-08-26T09:37:37.820Z,16.60
2022-08-26T09:40:27.473Z,17.02
2022-08-26T09:43:22.167Z,15.93
2022-08-26T09:45:59.411Z,16.88
2022-08-26T09:48:36.424Z,17.30
2022-08-26T09:51:07.302Z,15.45
2022-08-26T09:53:50.734Z,16.35
2022-08-26T09:56:27.572Z,15.38
2022-08-26T09:59:11.091Z,15.83
2022-08-26T10:01:44.747Z,16.75
2022-08-26T10:04:15.268Z,15.98
2022-08-26T10:07:08.519Z,15.73
2022-08-26T10:09:39.536Z,14.95
2022-08-26T10:12:10.641Z,16.33
2022-08-26T10:14:49.337Z,15.80
2022-08-26T10:17:29.154Z,16.20
2022-08-26T10:20:04.229Z,15.40
2022-08-26T10:22:37.590Z,16.05
2022-08-26T10:25:07.637Z,16.00
2022-08-26T10:27:40.501Z,15.65
2022-08-26T10:30:29.864Z,16.58
2022-08-26T10:33:01.143Z,15.75
2022-08-26T10:35:31.384Z,15.93
2022-08-26T10:38:04.429Z,16.10
2022-08-26T10:40:32.827Z,15.63
2022-08-26T10:43:11.140Z,15.85
2022-08-26T10:45:44.225Z,17.20
2022-08-26T10:48:23.416Z,16.63
2022-08-26T10:50:52.027Z,18.00
2022-08-26T10:53:44.408Z,17.92
2022-08-26T10:56:25.663Z,15.82
2022-08-26T10:59:03.040Z,16.60
2022-08-26T11:01:47.229Z,16.70
2022-08-26T11:04:23.512Z,15.57
2022-08-26T11:07:11.940Z,16.08
2022-08-26T11:09:45.481Z,14.50
2022-08-26T11:15:25.345Z,13.48
2022-08-26T11:18:01.103Z,13.75
2022-08-26T11:20:41.538Z,14.52
2022-08-26T11:23:13.174Z,12.43
2022-08-26T11:26:04.643Z,13.50
2022-08-26T11:28:44.314Z,14.75
2022-08-26T11:34:45.025Z,16.92
2022-08-26T11:37:17.811Z,14.65
2022-08-26T11:39:56.943Z,14.93
2022-08-26T11:42:35.542Z,15.35
2022-08-26T11:45:14.682Z,16.35
2022-08-26T11:47:43.031Z,16.13
2022-08-26T11:50:18.716Z,16.35
2022-08-26T11:53:06.065Z,16.83
2022-08-26T11:55:36.557Z,17.10
2022-08-26T11:58:16.448Z,18.15
2022-08-26T12:00:45.677Z,16.63
2022-08-26T12:03:23.048Z,16.25
2022-08-26T12:05:52.831Z,15.80
2022-08-26T12:08:27.783Z,16.65
2022-08-26T12:11:04.041Z,18.05
2022-08-26T12:13:33.180Z,17.23
2022-08-26T12:16:01.919Z,17.33
2022-08-26T12:18:33.098Z,18.02
2022-08-26T12:21:12.600Z,17.50
2022-08-26T12:23:46.726Z,17.73
2022-08-26T12:26:27.125Z,19.35
2022-08-26T12:29:01.642Z,19.30
2022-08-26T12:31:42.637Z,19.13
2022-08-26T12:34:17.884Z,19.08
2022-08-26T12:36:48.993Z,18.38
2022-08-26T12:39:26.519Z,19.15
2022-08-26T12:42:08.253Z,19.55
2022-08-26T12:44:36.970Z,21.52
2022-08-26T12:47:08.782Z,22.55
2022-08-26T12:49:38.528Z,22.92
2022-08-26T12:52:08.519Z,22.90
2022-08-26T12:55:01.623Z,22.95
2022-08-26T12:57:39.344Z,24.17
2022-08-26T13:00:28.424Z,23.30
2022-08-26T13:03:03.312Z,23.45
2022-08-26T13:05:38.942Z,23.55
2022-08-26T13:08:13.568Z,24.15
2022-08-26T13:10:44.204Z,25.65
2022-08-26T13:13:17.788Z,24.92
2022-08-26T13:15:46.195Z,26.10
2022-08-26T13:18:14.558Z,26.52
2022-08-26T13:20:44.558Z,26.70
2022-08-26T13:23:18.923Z,27.23
2022-08-26T13:25:47.306Z,27.48
2022-08-26T13:28:15.756Z,27.83
2022-08-26T13:30:46.030Z,27.15
2022-08-26T13:33:19.333Z,27.23
2022-08-26T13:35:48.785Z,26.88
2022-08-26T13:38:33.111Z,27.02
2022-08-26T13:41:03.013Z,26.33
2022-08-26T13:43:31.656Z,28.00
2022-08-26T13:46:01.143Z,27.13
2022-08-26T13:48:29.620Z,27.40
2022-08-26T13:50:58.207Z,26.80
2022-08-26T13:53:32.022Z,25.98
2022-08-26T13:56:01.085Z,28.02
2022-08-26T13:58:29.458Z,27.70
2022-08-26T14:00:58.316Z,28.30
2022-08-26T14:03:31.891Z,28.02
2022-08-26T14:06:00.354Z,30.30
2022-08-26T14:08:33.152Z,30.63
2022-08-26T14:11:01.443Z,29.47
2022-08-26T14:13:29.877Z,31.42
2022-08-26T14:16:05.305Z,30.05
2022-08-26T14:18:39.702Z,29.92
2022-08-26T14:21:11.965Z,29.38
2022-08-26T14:23:40.638Z,29.48
2022-08-26T14:26:11.988Z,29.05
2022-08-26T14:29:01.179Z,28.38
2022-08-26T14:31:32.125Z,28.33
2022-08-26T14:34:03.072Z,28.13
2022-08-26T14:36:40.410Z,27.13
2022-08-26T14:39:09.779Z,27.60
2022-08-26T14:41:54.443Z,29.17
2022-08-26T14:44:28.818Z,29.27
2022-08-26T14:46:58.188Z,29.40
2022-08-26T14:49:27.640Z,29.52
2022-08-26T14:51:56.093Z,27.08
2022-08-26T14:54:29.889Z,27.75
2022-08-26T14:56:59.349Z,27.65
2022-08-26T14:59:34.134Z,27.67
2022-08-26T15:02:08.915Z,26.48
2022-08-26T15:04:41.976Z,27.27
2022-08-26T15:07:20.349Z,27.70
2022-08-26T15:09:48.777Z,27.90
2022-08-26T15:12:17.075Z,24.83
2022-08-26T15:14:45.495Z,25.30
2022-08-26T15:17:13.871Z,26.77
2022-08-26T15:19:42.296Z,26.00
2022-08-26T15:22:10.743Z,24.73
2022-08-26T15:24:39.072Z,25.42
2022-08-26T15:27:07.545Z,22.38
2022-08-26T15:29:36.510Z,24.23
2022-08-26T15:32:05.404Z,24.40
2022-08-26T15:34:33.802Z,23.20
2022-08-26T15:37:02.503Z,23.55
2022-08-26T15:39:32.444Z,23.85
2022-08-26T15:42:00.970Z,22.73
2022-08-26T15:44:29.395Z,23.00
2022-08-26T15:46:58.945Z,23.88
2022-08-26T15:49:28.009Z,23.48
2022-08-26T15:51:56.412Z,22.42
2022-08-26T15:54:25.041Z,22.30
2022-08-26T15:56:54.104Z,22.08
2022-08-26T15:59:22.818Z,21.77
2022-08-26T16:01:56.225Z,21.85
2022-08-26T16:04:24.809Z,22.25
2022-08-26T16:06:53.214Z,20.85
2022-08-26T16:09:24.430Z,21.17
2022-08-26T16:11:57.459Z,22.17
2022-08-26T16:14:26.465Z,21.95
2022-08-26T16:16:59.123Z,22.23
2022-08-26T16:19:27.487Z,22.73
2022-08-26T16:22:09.542Z,23.55
2022-08-26T16:24:38.050Z,22.83
2022-08-26T16:27:17.757Z,23.00
2022-08-26T16:29:47.651Z,22.80
2022-08-26T16:32:15.992Z,23.00
2022-08-26T16:34:56.257Z,23.00
2022-08-26T16:37:25.519Z,24.58
2022-08-26T16:39:54.082Z,23.90
2022-08-26T16:42:22.462Z,23.95
2022-08-26T16:44:55.964Z,25.67
2022-08-26T16:47:24.386Z,25.33
2022-08-26T16:50:04.833Z,25.13
2022-08-26T16:52:33.901Z,24.77
2022-08-26T16:55:02.892Z,26.42
2022-08-26T16:57:31.465Z,25.85
2022-08-26T17:00:21.259Z,25.08
2022-08-26T17:02:55.578Z,25.35
2022-08-26T17:05:29.221Z,24.98
2022-08-26T17:07:59.280Z,25.25
2022-08-26T17:10:38.508Z,25.05
2022-08-26T17:13:06.978Z,23.93
2022-08-26T17:15:35.592Z,24.67
2022-08-26T17:18:05.117Z,23.92
2022-08-26T17:20:38.625Z,22.73
2022-08-26T17:23:07.115Z,22.85
2022-08-26T17:25:35.514Z,23.13
2022-08-26T17:28:03.993Z,22.77
2022-08-26T17:30:41.975Z,21.50
2022-08-26T17:33:11.040Z,23.35
2022-08-26T17:35:40.110Z,21.30
2022-08-26T17:38:18.702Z,21.88
2022-08-26T17:40:47.145Z,20.33
2022-08-26T17:43:20.618Z,20.85
2022-08-26T17:45:49.233Z,22.15
2022-08-26T17:48:17.756Z,19.80
2022-08-26T17:50:49.437Z,20.70
2022-08-26T17:53:19.312Z,20.35
2022-08-26T17:55:48.220Z,20.90
2022-08-26T17:58:17.852Z,20.40
2022-08-26T18:00:51.420Z,20.55
2022-08-26T18:03:19.943Z,20.30
2022-08-26T18:05:50.035Z,20.48
2022-08-26T18:08:18.865Z,20.90
2022-08-26T18:10:47.725Z,19.75
2022-08-26T18:13:16.213Z,21.08
2022-08-26T18:15:45.948Z,21.05
2022-08-26T18:18:15.340Z,20.48
2022-08-26T18:20:45.277Z,21.95
2022-08-26T18:23:13.828Z,20.87
2022-08-26T18:25:42.872Z,21.60
2022-08-26T18:28:11.311Z,20.25
2022-08-26T18:30:42.163Z,22.30
2022-08-26T18:33:10.869Z,21.50
2022-08-26T18:35:44.099Z,22.70
2022-08-26T18:38:14.179Z,22.00
2022-08-26T18:40:44.256Z,22.63
2022-08-26T18:43:13.024Z,22.25
2022-08-26T18:45:41.560Z,20.73
2022-08-26T18:48:20.229Z,22.40
2022-08-26T18:50:55.261Z,21.35
2022-08-26T18:53:24.118Z,23.20
2022-08-26T18:55:52.696Z,22.70
2022-08-26T18:58:21.224Z,22.38
2022-08-26T19:01:01.817Z,22.48
2022-08-26T19:03:30.571Z,22.73
2022-08-26T19:05:59.182Z,22.13
2022-08-26T19:08:38.030Z,22.40
2022-08-26T19:11:31.228Z,22.17
2022-08-26T19:14:06.989Z,23.30
2022-08-26T19:16:47.420Z,23.25
2022-08-26T19:19:16.546Z,23.25
2022-08-26T19:21:49.828Z,23.08
2022-08-26T19:24:18.567Z,23.17
2022-08-26T19:26:49.029Z,23.25
2022-08-26T19:29:33.496Z,23.27
2022-08-26T19:32:02.537Z,24.00
2022-08-26T19:34:31.026Z,23.92
2022-08-26T19:36:59.613Z,23.52
2022-08-26T19:39:28.272Z,23.30
2022-08-26T19:41:56.793Z,22.75
2022-08-26T19:44:43.525Z,23.17
2022-08-26T19:47:12.491Z,22.75
2022-08-26T19:49:40.978Z,23.27
2022-08-26T19:52:10.160Z,23.30
2022-08-26T19:54:39.004Z,23.90
2022-08-26T19:57:07.570Z,23.75
2022-08-26T19:59:36.779Z,23.73
2022-08-26T20:02:10.025Z,24.20
2022-08-26T20:04:42.381Z,24.00
2022-08-26T20:07:13.070Z,24.42
2022-08-26T20:09:45.476Z,25.17
2022-08-26T20:12:14.066Z,24.23
2022-08-26T20:14:42.621Z,24.55
2022-08-26T20:17:11.273Z,25.30
2022-08-26T20:19:58.289Z,24.45
2022-08-26T20:22:26.801Z,26.27
2022-08-26T20:24:55.566Z,25.83
2022-08-26T20:27:37.814Z,25.05
2022-08-26T20:30:07.822Z,27.15
2022-08-26T20:32:36.915Z,25.95
2022-08-26T20:35:14.936Z,26.35
2022-08-26T20:37:43.925Z,26.70
2022-08-26T20:40:14.211Z,27.00
2022-08-26T20:42:47.630Z,26.25
2022-08-26T20:45:26.745Z,26.88
2022-08-26T20:47:55.354Z,27.90
2022-08-26T20:50:23.994Z,26.70
2022-08-26T20:52:58.697Z,24.77
2022-08-26T20:55:28.056Z,26.50
2022-08-26T20:58:06.639Z,25.35
2022-08-26T21:00:45.214Z,25.73
2022-08-26T21:03:17.406Z,25.05
2022-08-26T21:05:45.974Z,25.65
2022-08-26T21:08:24.357Z,25.77
2022-08-26T21:10:53.871Z,24.17
2022-08-26T21:13:22.413Z,24.27
2022-08-26T21:16:01.039Z,24.60
2022-08-26T21:18:29.660Z,25.38
2022-08-26T21:21:06.591Z,25.08
2022-08-26T21:23:35.516Z,25.17
2022-08-26T21:26:10.064Z,25.20
2022-08-26T21:28:48.201Z,24.95
2022-08-26T21:31:17.939Z,25.55
2022-08-26T21:33:51.320Z,25.60
2022-08-26T21:36:20.278Z,24.42
2022-08-26T21:38:48.832Z,25.35
2022-08-26T21:41:22.446Z,25.35
2022-08-26T21:43:51.862Z,26.13
2022-08-26T21:46:22.383Z,26.00
2022-08-26T21:49:01.456Z,25.48
2022-08-26T21:51:31.564Z,25.70
2022-08-26T21:54:00.518Z,25.70
2022-08-26T21:56:29.912Z,25.67
2022-08-26T21:58:59.288Z,26.25
2022-08-26T22:01:29.825Z,26.98
2022-08-26T22:04:06.869Z,25.05
2022-08-26T22:06:39.732Z,26.20
2022-08-26T22:09:08.212Z,26.92
2022-08-26T22:11:36.726Z,26.10
2022-08-26T22:14:05.524Z,26.10
2022-08-26T22:16:34.078Z,26.17
2022-08-26T22:19:02.829Z,26.52
2022-08-26T22:21:36.121Z,23.98
2022-08-26T22:24:06.505Z,27.17
2022-08-26T22:26:35.331Z,25.53
2022-08-26T22:29:05.180Z,24.90
2022-08-26T22:31:38.370Z,25.60
2022-08-26T22:34:08.685Z,25.15
2022-08-26T22:36:43.063Z,24.90
2022-08-26T22:39:13.877Z,24.92
2022-08-26T22:41:43.426Z,26.38
2022-08-26T22:44:12.189Z,25.65
2022-08-26T22:46:41.547Z,25.80
2022-08-26T22:49:11.734Z,25.42
2022-08-26T22:51:51.341Z,24.63
2022-08-26T22:54:19.788Z,26.65
2022-08-26T22:56:48.397Z,26.08
2022-08-26T22:59:26.873Z,25.50
2022-08-26T23:01:59.792Z,25.48
2022-08-26T23:04:31.861Z,25.52
2022-08-26T23:07:03.179Z,26.23
2022-08-26T23:09:39.481Z,25.17
2022-08-26T23:12:12.969Z,21.85
2022-08-26T23:14:41.820Z,26.30
2022-08-26T23:17:11.363Z,26.40
2022-08-26T23:19:44.728Z,26.90
2022-08-26T23:22:18.272Z,23.52
2022-08-26T23:24:56.853Z,25.42
2022-08-26T23:27:30.283Z,27.10
2022-08-26T23:29:58.763Z,26.10
2022-08-26T23:32:36.914Z,25.98
2022-08-26T23:35:05.770Z,26.38
2022-08-26T23:37:46.180Z,26.50
2022-08-26T23:40:27.690Z,26.35
2022-08-26T23:43:07.240Z,28.27
2022-08-26T23:45:35.875Z,25.55
2022-08-26T23:48:04.672Z,25.20
2022-08-26T23:50:51.738Z,25.35
2022-08-26T23:53:22.291Z,26.02
2022-08-26T23:55:51.740Z,25.38
2022-08-26T23:58:25.228Z,26.80
